sensor_id;sensor_type;location;lat;lon;timestamp;pressure;altitude;pressure_sealevel;temperature;humidity
15487;BME280;7845;53.698;10.078;2023-05-02T00:00:14;101253.53;;;16.53;100.00
15487;BME280;7845;53.698;10.078;2023-05-02T00:02:41;101248.41;;;16.47;100.00
15487;BME280;7845;53.698;10.078;2023-05-02T00:05:07;101237.00;;;16.84;100.00
15487;BME280;7845;53.698;10.078;2023-05-02T00:07:32;101243.53;;;16.68;100.00
15487;BME280;7845;53.698;10.078;2023-05-02T00:09:58;101228.91;;;16.90;100.00
15487;BME280;7845;53.698;10.078;2023-05-02T00:12:26;101239.44;;;16.56;100.00
15487;BME280;7845;53.698;10.078;2023-05-02T00:14:53;101232.09;;;16.69;100.00
15487;BME280;7845;53.698;10.078;2023-05-02T00:17:19;101230.59;;;16.58;100.00
15487;BME280;7845;53.698;10.078;2023-05-02T00:19:45;101231.81;;;16.44;100.00
15487;BME280;7845;53.698;10.078;2023-05-02T00:22:12;101240.81;;;16.72;100.00
15487;BME280;7845;53.698;10.078;2023-05-02T00:24:37;101236.78;;;16.57;100.00
15487;BME280;7845;53.698;10.078;2023-05-02T00:27:03;101240.31;;;16.56;100.00
15487;BME280;7845;53.698;10.078;2023-05-02T00:29:30;101235.72;;;16.65;100.00
15487;BME280;7845;53.698;10.078;2023-05-02T00:31:55;101242.66;;;16.67;100.00
15487;BME280;7845;53.698;10.078;2023-05-02T00:34:22;101246.09;;;16.71;100.00
15487;BME280;7845;53.698;10.078;2023-05-02T00:36:48;101242.03;;;16.91;100.00
15487;BME280;7845;53.698;10.078;2023-05-02T00:39:13;101236.53;;;16.67;100.00
15487;BME280;7845;53.698;10.078;2023-05-02T00:41:38;101242.59;;;16.70;100.00
15487;BME280;7845;53.698;10.078;2023-05-02T00:44:04;101241.78;;;16.68;100.00
15487;BME280;7845;53.698;10.078;2023-05-02T00:46:29;101239.84;;;16.75;100.00
15487;BME280;7845;53.698;10.078;2023-05-02T00:48:55;101229.66;;;16.95;100.00
15487;BME280;7845;53.698;10.078;2023-05-02T00:51:20;101240.28;;;16.92;100.00
15487;BME280;7845;53.698;10.078;2023-05-02T00:53:46;101237.31;;;17.04;100.00
15487;BME280;7845;53.698;10.078;2023-05-02T00:56:12;101241.19;;;16.91;100.00
15487;BME280;7845;53.698;10.078;2023-05-02T00:58:38;101242.56;;;16.72;100.00
15487;BME280;7845;53.698;10.078;2023-05-02T01:04:03;101238.69;;;16.85;100.00
15487;BME280;7845;53.698;10.078;2023-05-02T01:06:42;101237.66;;;16.92;100.00
15487;BME280;7845;53.698;10.078;2023-05-02T01:14:53;101249.78;;;16.27;100.00
15487;BME280;7845;53.698;10.078;2023-05-02T01:17:24;101241.03;;;16.63;100.00
15487;BME280;7845;53.698;10.078;2023-05-02T01:19:57;101239.09;;;16.70;100.00
15487;BME280;7845;53.698;10.078;2023-05-02T01:22:25;101249.88;;;16.24;100.00
15487;BME280;7845;53.698;10.078;2023-05-02T01:28:00;101239.44;;;16.57;100.00
15487;BME280;7845;53.698;10.078;2023-05-02T01:30:33;101242.69;;;16.30;100.00
15487;BME280;7845;53.698;10.078;2023-05-02T01:33:01;101239.84;;;16.75;100.00
15487;BME280;7845;53.698;10.078;2023-05-02T01:35:29;101238.97;;;16.39;100.00
15487;BME280;7845;53.698;10.078;2023-05-02T01:37:57;101240.66;;;16.41;100.00
15487;BME280;7845;53.698;10.078;2023-05-02T01:40:24;101244.09;;;16.45;100.00
15487;BME280;7845;53.698;10.078;2023-05-02T01:42:51;101253.53;;;16.17;100.00
15487;BME280;7845;53.698;10.078;2023-05-02T01:45:19;101256.16;;;16.18;100.00
15487;BME280;7845;53.698;10.078;2023-05-02T01:47:46;101248.59;;;16.40;100.00
15487;BME280;7845;53.698;10.078;2023-05-02T01:50:16;101252.03;;;16.07;100.00
15487;BME280;7845;53.698;10.078;2023-05-02T01:52:43;101255.56;;;16.04;100.00
15487;BME280;7845;53.698;10.078;2023-05-02T01:55:13;101255.88;;;16.29;100.00
15487;BME280;7845;53.698;10.078;2023-05-02T01:57:42;101250.69;;;16.26;100.00
15487;BME280;7845;53.698;10.078;2023-05-02T02:00:10;101253.19;;;16.32;100.00
15487;BME280;7845;53.698;10.078;2023-05-02T02:02:41;101257.41;;;16.39;100.00
15487;BME280;7845;53.698;10.078;2023-05-02T02:05:11;101257.56;;;16.33;100.00
15487;BME280;7845;53.698;10.078;2023-05-02T02:07:38;101260.69;;;16.10;100.00
15487;BME280;7845;53.698;10.078;2023-05-02T02:10:05;101257.78;;;16.22;100.00
15487;BME280;7845;53.698;10.078;2023-05-02T02:12:40;101249.47;;;16.03;100.00
15487;BME280;7845;53.698;10.078;2023-05-02T02:17:47;101255.88;;;16.30;100.00
15487;BME280;7845;53.698;10.078;2023-05-02T02:20:14;101260.97;;;15.98;100.00
15487;BME280;7845;53.698;10.078;2023-05-02T02:22:42;101270.19;;;15.79;100.00
15487;BME280;7845;53.698;10.078;2023-05-02T02:25:17;101276.38;;;15.30;100.00
15487;BME280;7845;53.698;10.078;2023-05-02T02:27:43;101289.94;;;15.11;100.00
15487;BME280;7845;53.698;10.078;2023-05-02T02:30:09;101292.94;;;15.35;100.00
15487;BME280;7845;53.698;10.078;2023-05-02T02:32:35;101296.06;;;15.10;100.00
15487;BME280;7845;53.698;10.078;2023-05-02T02:35:03;101314.63;;;15.01;100.00
15487;BME280;7845;53.698;10.078;2023-05-02T02:38:07;101306.69;;;14.50;100.00
15487;BME280;7845;53.698;10.078;2023-05-02T02:40:48;101317.47;;;14.33;100.00
15487;BME280;7845;53.698;10.078;2023-05-02T02:43:24;101321.91;;;14.85;100.00
15487;BME280;7845;53.698;10.078;2023-05-02T02:46:22;101323.84;;;14.74;100.00
15487;BME280;7845;53.698;10.078;2023-05-02T02:49:09;101325.44;;;14.24;100.00
15487;BME280;7845;53.698;10.078;2023-05-02T02:51:41;101337.66;;;14.27;100.00
15487;BME280;7845;53.698;10.078;2023-05-02T02:54:28;101344.44;;;14.45;100.00
15487;BME280;7845;53.698;10.078;2023-05-02T02:57:00;101346.63;;;14.12;100.00
15487;BME280;7845;53.698;10.078;2023-05-02T02:59:31;101349.69;;;13.74;100.00
15487;BME280;7845;53.698;10.078;2023-05-02T03:02:05;101354.09;;;13.72;100.00
15487;BME280;7845;53.698;10.078;2023-05-02T03:04:38;101362.56;;;13.96;100.00
15487;BME280;7845;53.698;10.078;2023-05-02T03:07:05;101360.22;;;13.71;100.00
15487;BME280;7845;53.698;10.078;2023-05-02T03:09:41;101377.41;;;13.11;100.00
15487;BME280;7845;53.698;10.078;2023-05-02T03:12:06;101379.78;;;13.39;100.00
15487;BME280;7845;53.698;10.078;2023-05-02T03:14:32;101381.75;;;13.15;100.00
15487;BME280;7845;53.698;10.078;2023-05-02T03:16:57;101381.50;;;13.43;100.00
15487;BME280;7845;53.698;10.078;2023-05-02T03:19:23;101406.25;;;13.05;100.00
15487;BME280;7845;53.698;10.078;2023-05-02T03:21:51;101399.50;;;12.72;100.00
15487;BME280;7845;53.698;10.078;2023-05-02T03:24:16;101406.38;;;12.92;100.00
15487;BME280;7845;53.698;10.078;2023-05-02T03:26:43;101424.09;;;12.49;100.00
15487;BME280;7845;53.698;10.078;2023-05-02T03:29:08;101416.97;;;12.73;100.00
15487;BME280;7845;53.698;10.078;2023-05-02T03:31:35;101418.50;;;13.11;100.00
15487;BME280;7845;53.698;10.078;2023-05-02T03:34:00;101434.38;;;12.82;100.00
15487;BME280;7845;53.698;10.078;2023-05-02T03:36:26;101423.03;;;12.82;100.00
15487;BME280;7845;53.698;10.078;2023-05-02T03:38:51;101425.03;;;12.34;100.00
15487;BME280;7845;53.698;10.078;2023-05-02T03:41:17;101442.34;;;12.64;100.00
15487;BME280;7845;53.698;10.078;2023-05-02T03:43:42;101431.78;;;12.76;100.00
15487;BME280;7845;53.698;10.078;2023-05-02T03:46:09;101435.13;;;13.04;100.00
15487;BME280;7845;53.698;10.078;2023-05-02T03:48:36;101432.50;;;13.02;100.00
15487;BME280;7845;53.698;10.078;2023-05-02T03:51:03;101432.38;;;13.23;100.00
15487;BME280;7845;53.698;10.078;2023-05-02T03:53:29;101434.25;;;13.02;100.00
15487;BME280;7845;53.698;10.078;2023-05-02T03:55:55;101442.97;;;13.07;100.00
15487;BME280;7845;53.698;10.078;2023-05-02T03:58:21;101442.34;;;12.64;100.00
15487;BME280;7845;53.698;10.078;2023-05-02T04:00:47;101449.22;;;12.85;100.00
15487;BME280;7845;53.698;10.078;2023-05-02T04:03:13;101455.22;;;13.05;100.00
15487;BME280;7845;53.698;10.078;2023-05-02T04:05:38;101452.66;;;12.94;100.00
15487;BME280;7845;53.698;10.078;2023-05-02T04:08:05;101457.81;;;13.03;100.00
15487;BME280;7845;53.698;10.078;2023-05-02T04:10:30;101461.34;;;12.99;100.00
15487;BME280;7845;53.698;10.078;2023-05-02T04:12:58;101470.16;;;12.85;100.00
15487;BME280;7845;53.698;10.078;2023-05-02T04:15:28;101475.31;;;13.01;100.00
15487;BME280;7845;53.698;10.078;2023-05-02T04:17:54;101466.53;;;13.11;100.00
15487;BME280;7845;53.698;10.078;2023-05-02T04:20:19;101484.16;;;12.84;100.00
15487;BME280;7845;53.698;10.078;2023-05-02T04:22:45;101479.66;;;13.13;100.00
15487;BME280;7845;53.698;10.078;2023-05-02T04:25:12;101482.28;;;13.04;100.00
15487;BME280;7845;53.698;10.078;2023-05-02T04:27:38;101482.28;;;13.04;100.00
15487;BME280;7845;53.698;10.078;2023-05-02T04:30:04;101496.28;;;12.97;100.00
15487;BME280;7845;53.698;10.078;2023-05-02T04:32:30;101502.53;;;12.73;100.00
15487;BME280;7845;53.698;10.078;2023-05-02T04:34:55;101506.84;;;12.89;100.00
15487;BME280;7845;53.698;10.078;2023-05-02T04:37:21;101505.91;;;13.01;100.00
15487;BME280;7845;53.698;10.078;2023-05-02T04:39:46;101507.72;;;12.88;100.00
15487;BME280;7845;53.698;10.078;2023-05-02T04:42:11;101512.91;;;12.94;100.00
15487;BME280;7845;53.698;10.078;2023-05-02T04:44:37;101509.19;;;13.33;100.00
15487;BME280;7845;53.698;10.078;2023-05-02T04:47:04;101520.53;;;13.40;100.00
15487;BME280;7845;53.698;10.078;2023-05-02T04:49:30;101517.22;;;13.09;100.00
15487;BME280;7845;53.698;10.078;2023-05-02T04:51:56;101527.72;;;13.03;100.00
15487;BME280;7845;53.698;10.078;2023-05-02T04:54:22;101512.78;;;13.26;100.00
15487;BME280;7845;53.698;10.078;2023-05-02T04:56:50;101524.06;;;13.29;100.00
15487;BME280;7845;53.698;10.078;2023-05-02T04:59:16;101529.25;;;13.43;100.00
15487;BME280;7845;53.698;10.078;2023-05-02T05:01:42;101536.44;;;13.14;100.00
15487;BME280;7845;53.698;10.078;2023-05-02T05:04:09;101545.16;;;13.05;100.00
15487;BME280;7845;53.698;10.078;2023-05-02T05:06:36;101533.53;;;13.55;99.13
15487;BME280;7845;53.698;10.078;2023-05-02T05:09:01;101544.91;;;13.52;98.44
15487;BME280;7845;53.698;10.078;2023-05-02T05:11:27;101541.66;;;13.20;96.06
15487;BME280;7845;53.698;10.078;2023-05-02T05:13:53;101537.16;;;13.36;96.21
15487;BME280;7845;53.698;10.078;2023-05-02T05:16:18;101548.69;;;13.10;97.24
15487;BME280;7845;53.698;10.078;2023-05-02T05:18:43;101552.13;;;13.18;94.90
15487;BME280;7845;53.698;10.078;2023-05-02T05:21:09;101554.72;;;13.26;93.49
15487;BME280;7845;53.698;10.078;2023-05-02T05:23:35;101565.31;;;12.97;95.32
15487;BME280;7845;53.698;10.078;2023-05-02T05:26:13;101559.13;;;13.18;94.30
15487;BME280;7845;53.698;10.078;2023-05-02T05:28:40;101560.94;;;13.01;92.72
15487;BME280;7845;53.698;10.078;2023-05-02T05:31:10;101566.38;;;12.54;92.85
15487;BME280;7845;53.698;10.078;2023-05-02T05:33:38;101586.47;;;12.37;96.24
15487;BME280;7845;53.698;10.078;2023-05-02T05:36:08;101578.50;;;12.76;98.15
15487;BME280;7845;53.698;10.078;2023-05-02T05:38:34;101577.50;;;13.13;95.13
15487;BME280;7845;53.698;10.078;2023-05-02T05:41:00;101585.34;;;13.15;93.11
15487;BME280;7845;53.698;10.078;2023-05-02T05:43:26;101583.63;;;13.12;91.37
15487;BME280;7845;53.698;10.078;2023-05-02T05:45:53;101596.00;;;12.57;93.85
15487;BME280;7845;53.698;10.078;2023-05-02T05:48:18;101599.53;;;12.59;94.61
15487;BME280;7845;53.698;10.078;2023-05-02T05:50:44;101599.38;;;12.94;93.38
15487;BME280;7845;53.698;10.078;2023-05-02T05:53:09;101600.25;;;12.95;92.57
15487;BME280;7845;53.698;10.078;2023-05-02T05:55:36;101602.94;;;12.84;93.98
15487;BME280;7845;53.698;10.078;2023-05-02T05:58:03;101609.91;;;12.85;94.38
15487;BME280;7845;53.698;10.078;2023-05-02T06:00:28;101609.88;;;12.94;92.76
15487;BME280;7845;53.698;10.078;2023-05-02T06:02:54;101596.59;;;13.34;90.08
15487;BME280;7845;53.698;10.078;2023-05-02T06:05:19;101600.97;;;13.33;89.41
15487;BME280;7845;53.698;10.078;2023-05-02T06:07:45;101599.31;;;13.18;90.00
15487;BME280;7845;53.698;10.078;2023-05-02T06:10:11;101610.47;;;13.54;89.61
15487;BME280;7845;53.698;10.078;2023-05-02T06:12:36;101616.03;;;12.90;91.79
15487;BME280;7845;53.698;10.078;2023-05-02T06:15:02;101622.91;;;13.15;89.90
15487;BME280;7845;53.698;10.078;2023-05-02T06:17:27;101623.00;;;12.91;91.46
15487;BME280;7845;53.698;10.078;2023-05-02T06:19:53;101622.94;;;13.12;90.73
15487;BME280;7845;53.698;10.078;2023-05-02T06:22:18;101623.81;;;13.08;89.95
15487;BME280;7845;53.698;10.078;2023-05-02T06:24:43;101640.44;;;12.94;89.17
15487;BME280;7845;53.698;10.078;2023-05-02T06:27:09;101632.56;;;13.13;88.19
15487;BME280;7845;53.698;10.078;2023-05-02T06:29:35;101633.31;;;13.32;86.75
15487;BME280;7845;53.698;10.078;2023-05-02T06:32:01;101629.94;;;13.00;84.46
15487;BME280;7845;53.698;10.078;2023-05-02T06:34:31;101638.75;;;12.73;82.96
15487;BME280;7845;53.698;10.078;2023-05-02T06:36:56;101635.25;;;12.86;82.05
15487;BME280;7845;53.698;10.078;2023-05-02T06:39:21;101640.50;;;12.66;81.70
15487;BME280;7845;53.698;10.078;2023-05-02T06:41:46;101650.91;;;13.09;81.47
15487;BME280;7845;53.698;10.078;2023-05-02T06:44:14;101653.56;;;12.92;80.40
15487;BME280;7845;53.698;10.078;2023-05-02T06:46:39;101658.69;;;13.32;81.15
15487;BME280;7845;53.698;10.078;2023-05-02T06:49:05;101659.56;;;13.27;78.69
15487;BME280;7845;53.698;10.078;2023-05-02T06:51:30;101655.03;;;13.61;78.46
15487;BME280;7845;53.698;10.078;2023-05-02T06:53:57;101656.78;;;13.58;77.50
15487;BME280;7845;53.698;10.078;2023-05-02T06:56:23;101668.22;;;13.46;77.31
15487;BME280;7845;53.698;10.078;2023-05-02T06:58:51;101663.72;;;13.68;77.14
15487;BME280;7845;53.698;10.078;2023-05-02T07:01:17;101665.53;;;13.61;76.65
15487;BME280;7845;53.698;10.078;2023-05-02T07:03:42;101672.31;;;13.91;76.11
15487;BME280;7845;53.698;10.078;2023-05-02T07:06:09;101681.03;;;13.98;75.99
15487;BME280;7845;53.698;10.078;2023-05-02T07:08:34;101668.56;;;14.22;74.34
15487;BME280;7845;53.698;10.078;2023-05-02T07:11:03;101680.31;;;13.71;74.08
15487;BME280;7845;53.698;10.078;2023-05-02T07:13:28;101688.84;;;14.05;72.45
15487;BME280;7845;53.698;10.078;2023-05-02T07:15:53;101689.69;;;14.07;72.95
15487;BME280;7845;53.698;10.078;2023-05-02T07:18:19;101697.63;;;14.00;73.90
15487;BME280;7845;53.698;10.078;2023-05-02T07:20:46;101686.06;;;14.22;73.56
15487;BME280;7845;53.698;10.078;2023-05-02T07:23:12;101677.56;;;13.91;71.30
15487;BME280;7845;53.698;10.078;2023-05-02T07:25:37;101693.16;;;14.15;69.85
15487;BME280;7845;53.698;10.078;2023-05-02T07:28:04;101690.53;;;14.14;71.46
15487;BME280;7845;53.698;10.078;2023-05-02T07:30:29;101710.78;;;13.95;71.72
15487;BME280;7845;53.698;10.078;2023-05-02T07:32:55;101696.56;;;14.25;71.28
15487;BME280;7845;53.698;10.078;2023-05-02T07:35:20;101692.94;;;14.39;70.40
15487;BME280;7845;53.698;10.078;2023-05-02T07:37:46;101705.97;;;14.55;70.12
15487;BME280;7845;53.698;10.078;2023-05-02T07:40:12;101706.03;;;14.46;69.60
15487;BME280;7845;53.698;10.078;2023-05-02T07:42:38;101717.53;;;14.28;70.58
15487;BME280;7845;53.698;10.078;2023-05-02T07:45:06;101710.94;;;14.82;70.87
15487;BME280;7845;53.698;10.078;2023-05-02T07:47:32;101710.88;;;14.92;70.14
15487;BME280;7845;53.698;10.078;2023-05-02T07:49:57;101716.22;;;14.83;69.13
15487;BME280;7845;53.698;10.078;2023-05-02T07:52:23;101710.91;;;14.85;67.65
15487;BME280;7845;53.698;10.078;2023-05-02T07:54:49;101716.25;;;14.80;68.29
15487;BME280;7845;53.698;10.078;2023-05-02T07:57:15;101730.47;;;14.57;69.38
15487;BME280;7845;53.698;10.078;2023-05-02T07:59:40;101729.47;;;14.71;68.78
15487;BME280;7845;53.698;10.078;2023-05-02T08:02:06;101722.19;;;14.98;67.34
15487;BME280;7845;53.698;10.078;2023-05-02T08:04:32;101721.84;;;15.26;67.42
15487;BME280;7845;53.698;10.078;2023-05-02T08:06:57;101719.94;;;15.39;66.83
15487;BME280;7845;53.698;10.078;2023-05-02T08:09:22;101737.91;;;15.04;67.79
15487;BME280;7845;53.698;10.078;2023-05-02T08:11:48;101731.97;;;15.63;66.11
15487;BME280;7845;53.698;10.078;2023-05-02T08:14:15;101740.06;;;15.44;65.89
15487;BME280;7845;53.698;10.078;2023-05-02T08:16:41;101730.59;;;15.31;65.54
15487;BME280;7845;53.698;10.078;2023-05-02T08:19:07;101736.56;;;15.42;64.56
15487;BME280;7845;53.698;10.078;2023-05-02T08:21:32;101738.78;;;15.04;64.33
15487;BME280;7845;53.698;10.078;2023-05-02T08:23:58;101750.88;;;15.17;65.23
15487;BME280;7845;53.698;10.078;2023-05-02T08:26:26;101749.78;;;15.41;64.57
15487;BME280;7845;53.698;10.078;2023-05-02T08:28:53;101758.75;;;15.22;63.94
15487;BME280;7845;53.698;10.078;2023-05-02T08:31:20;101758.47;;;15.47;64.01
15487;BME280;7845;53.698;10.078;2023-05-02T08:33:46;101772.88;;;15.13;65.89
15487;BME280;7845;53.698;10.078;2023-05-02T08:36:15;101778.75;;;15.36;66.45
15487;BME280;7845;53.698;10.078;2023-05-02T08:38:42;101773.13;;;15.70;66.60
15487;BME280;7845;53.698;10.078;2023-05-02T08:41:14;101760.84;;;15.70;64.08
15487;BME280;7845;53.698;10.078;2023-05-02T08:43:41;101772.31;;;16.27;63.41
15487;BME280;7845;53.698;10.078;2023-05-02T08:46:07;101771.47;;;15.60;60.89
15487;BME280;7845;53.698;10.078;2023-05-02T08:48:39;101775.78;;;15.65;60.24
15487;BME280;7845;53.698;10.078;2023-05-02T08:51:12;101771.28;;;15.76;60.38
15487;BME280;7845;53.698;10.078;2023-05-02T08:53:39;101744.72;;;16.49;57.79
15487;BME280;7845;53.698;10.078;2023-05-02T08:56:09;101771.53;;;16.19;59.37
15487;BME280;7845;53.698;10.078;2023-05-02T08:58:36;101776.50;;;15.79;59.35
15487;BME280;7845;53.698;10.078;2023-05-02T09:01:16;101774.47;;;15.99;59.06
15487;BME280;7845;53.698;10.078;2023-05-02T09:03:44;101775.84;;;16.25;58.11
15487;BME280;7845;53.698;10.078;2023-05-02T09:06:15;101767.75;;;16.37;58.98
15487;BME280;7845;53.698;10.078;2023-05-02T09:08:44;101775.69;;;16.34;58.40
15487;BME280;7845;53.698;10.078;2023-05-02T09:11:10;101792.59;;;16.21;59.80
15487;BME280;7845;53.698;10.078;2023-05-02T09:13:38;101793.66;;;16.09;61.15
15487;BME280;7845;53.698;10.078;2023-05-02T09:16:41;101794.06;;;16.40;58.35
15487;BME280;7845;53.698;10.078;2023-05-02T09:19:00;101794.41;;;17.24;59.98
15487;BME280;7845;53.698;10.078;2023-05-02T09:21:37;101782.00;;;17.29;55.00
15487;BME280;7845;53.698;10.078;2023-05-02T09:24:21;101788.16;;;17.74;57.78
15487;BME280;7845;53.698;10.078;2023-05-02T09:29:27;101807.25;;;16.96;56.87
15487;BME280;7845;53.698;10.078;2023-05-02T09:31:55;101809.94;;;16.92;57.45
15487;BME280;7845;53.698;10.078;2023-05-02T09:34:20;101808.44;;;16.77;56.31
15487;BME280;7845;53.698;10.078;2023-05-02T09:36:47;101815.69;;;17.15;58.47
15487;BME280;7845;53.698;10.078;2023-05-02T09:39:20;101797.53;;;17.44;55.12
15487;BME280;7845;53.698;10.078;2023-05-02T09:41:47;101800.81;;;17.58;54.90
15487;BME280;7845;53.698;10.078;2023-05-02T09:44:14;101814.72;;;17.68;56.70
15487;BME280;7845;53.698;10.078;2023-05-02T09:46:43;101821.44;;;17.35;57.03
15487;BME280;7845;53.698;10.078;2023-05-02T09:49:09;101833.38;;;17.10;57.33
15487;BME280;7845;53.698;10.078;2023-05-02T09:51:34;101839.19;;;16.78;57.03
15487;BME280;7845;53.698;10.078;2023-05-02T09:54:01;101862.78;;;16.26;59.85
15487;BME280;7845;53.698;10.078;2023-05-02T09:56:26;101866.72;;;16.59;60.59
15487;BME280;7845;53.698;10.078;2023-05-02T09:59:10;101878.03;;;16.03;63.84
15487;BME280;7845;53.698;10.078;2023-05-02T10:01:39;101861.91;;;16.85;63.39
15487;BME280;7845;53.698;10.078;2023-05-02T10:04:11;101863.22;;;17.12;63.98
15487;BME280;7845;53.698;10.078;2023-05-02T10:06:43;101859.13;;;16.94;63.55
15487;BME280;7845;53.698;10.078;2023-05-02T10:09:10;101839.72;;;16.98;60.03
15487;BME280;7845;53.698;10.078;2023-05-02T10:11:41;101838.56;;;17.63;59.50
15487;BME280;7845;53.698;10.078;2023-05-02T10:14:09;101837.16;;;16.95;58.15
15487;BME280;7845;53.698;10.078;2023-05-02T10:16:38;101842.41;;;16.95;58.29
15487;BME280;7845;53.698;10.078;2023-05-02T10:19:08;101859.50;;;17.24;60.60
15487;BME280;7845;53.698;10.078;2023-05-02T10:21:35;101847.06;;;17.32;58.55
15487;BME280;7845;53.698;10.078;2023-05-02T10:24:02;101839.59;;;17.06;57.72
15487;BME280;7845;53.698;10.078;2023-05-02T10:26:28;101841.06;;;17.71;57.54
15487;BME280;7845;53.698;10.078;2023-05-02T10:28:55;101822.09;;;17.94;55.79
15487;BME280;7845;53.698;10.078;2023-05-02T10:31:21;101834.50;;;18.30;55.66
15487;BME280;7845;53.698;10.078;2023-05-02T10:33:50;101830.69;;;18.42;53.92
15487;BME280;7845;53.698;10.078;2023-05-02T10:36:21;101833.34;;;18.02;54.57
15487;BME280;7845;53.698;10.078;2023-05-02T10:38:48;101832.31;;;17.67;55.67
15487;BME280;7845;53.698;10.078;2023-05-02T10:41:17;101857.50;;;17.38;57.86
15487;BME280;7845;53.698;10.078;2023-05-02T10:43:48;101856.63;;;17.83;57.08
15487;BME280;7845;53.698;10.078;2023-05-02T10:46:30;101890.50;;;16.57;60.24
15487;BME280;7845;53.698;10.078;2023-05-02T10:49:07;101885.16;;;17.15;60.58
15487;BME280;7845;53.698;10.078;2023-05-02T10:51:34;101885.03;;;17.23;60.09
15487;BME280;7845;53.698;10.078;2023-05-02T10:57:02;101897.31;;;16.71;61.90
15487;BME280;7845;53.698;10.078;2023-05-02T11:02:03;101894.41;;;17.39;59.08
15487;BME280;7845;53.698;10.078;2023-05-02T11:04:57;101897.31;;;16.71;59.33
15487;BME280;7845;53.698;10.078;2023-05-02T11:07:22;101891.66;;;16.95;58.99
15487;BME280;7845;53.698;10.078;2023-05-02T11:09:48;101885.63;;;17.39;58.43
15487;BME280;7845;53.698;10.078;2023-05-02T11:12:44;101895.06;;;17.52;57.96
15487;BME280;7845;53.698;10.078;2023-05-02T11:15:10;101893.41;;;16.96;57.23
15487;BME280;7845;53.698;10.078;2023-05-02T11:20:22;101887.94;;;17.58;57.60
15487;BME280;7845;53.698;10.078;2023-05-02T11:22:48;101870.25;;;18.06;54.02
15487;BME280;7845;53.698;10.078;2023-05-02T11:25:33;101858.81;;;18.84;53.78
15487;BME280;7845;53.698;10.078;2023-05-02T11:28:07;101860.94;;;18.68;51.39
15487;BME280;7845;53.698;10.078;2023-05-02T11:30:43;101856.38;;;18.75;50.81
15487;BME280;7845;53.698;10.078;2023-05-02T11:33:13;101880.16;;;18.76;52.99
15487;BME280;7845;53.698;10.078;2023-05-02T11:35:42;101899.72;;;17.87;55.76
15487;BME280;7845;53.698;10.078;2023-05-02T11:38:11;101921.41;;;17.04;59.89
15487;BME280;7845;53.698;10.078;2023-05-02T11:40:36;101929.69;;;16.79;61.38
15487;BME280;7845;53.698;10.078;2023-05-02T11:43:13;101937.06;;;16.55;63.43
15487;BME280;7845;53.698;10.078;2023-05-02T11:45:41;101934.75;;;16.95;63.42
15487;BME280;7845;53.698;10.078;2023-05-02T11:48:11;101947.97;;;16.25;64.35
15487;BME280;7845;53.698;10.078;2023-05-02T11:50:51;101953.31;;;16.21;63.86
15487;BME280;7845;53.698;10.078;2023-05-02T11:53:19;101942.72;;;16.25;62.24
15487;BME280;7845;53.698;10.078;2023-05-02T11:55:55;101947.38;;;16.74;63.21
15487;BME280;7845;53.698;10.078;2023-05-02T11:58:23;101937.72;;;17.28;60.58
15487;BME280;7845;53.698;10.078;2023-05-02T12:00:50;101937.00;;;17.18;60.49
15487;BME280;7845;53.698;10.078;2023-05-02T12:03:42;101944.53;;;17.42;59.35
15487;BME280;7845;53.698;10.078;2023-05-02T12:06:13;101945.66;;;17.29;59.81
15487;BME280;7845;53.698;10.078;2023-05-02T12:08:40;101936.97;;;17.72;58.02
15487;BME280;7845;53.698;10.078;2023-05-02T12:11:07;101939.59;;;17.73;57.10
15487;BME280;7845;53.698;10.078;2023-05-02T12:13:33;101942.97;;;17.83;57.90
15487;BME280;7845;53.698;10.078;2023-05-02T12:15:59;101941.56;;;18.08;56.83
15487;BME280;7845;53.698;10.078;2023-05-02T12:18:25;101942.91;;;17.86;55.92
15487;BME280;7845;53.698;10.078;2023-05-02T12:20:53;101949.50;;;18.08;56.80
15487;BME280;7845;53.698;10.078;2023-05-02T12:23:21;101966.31;;;17.01;57.63
15487;BME280;7845;53.698;10.078;2023-05-02T12:25:47;101965.09;;;17.22;57.15
15487;BME280;7845;53.698;10.078;2023-05-02T12:28:13;101944.00;;;17.22;53.49
15487;BME280;7845;53.698;10.078;2023-05-02T12:30:39;101941.31;;;17.76;51.90
15487;BME280;7845;53.698;10.078;2023-05-02T12:33:06;101946.00;;;17.60;51.20
15487;BME280;7845;53.698;10.078;2023-05-02T12:35:32;101945.13;;;18.07;52.21
15487;BME280;7845;53.698;10.078;2023-05-02T12:38:17;101948.72;;;18.03;50.42
15487;BME280;7845;53.698;10.078;2023-05-02T12:40:50;101961.97;;;17.52;52.43
15487;BME280;7845;53.698;10.078;2023-05-02T12:43:16;101969.38;;;17.83;51.71
15487;BME280;7845;53.698;10.078;2023-05-02T12:45:42;101957.69;;;18.39;50.52
15487;BME280;7845;53.698;10.078;2023-05-02T12:48:27;101952.81;;;18.17;49.41
15487;BME280;7845;53.698;10.078;2023-05-02T12:50:53;101966.41;;;17.49;51.00
15487;BME280;7845;53.698;10.078;2023-05-02T12:53:43;101970.16;;;17.88;50.61
15487;BME280;7845;53.698;10.078;2023-05-02T12:56:10;101970.75;;;18.02;51.25
15487;BME280;7845;53.698;10.078;2023-05-02T12:58:47;101971.84;;;17.92;52.20
15487;BME280;7845;53.698;10.078;2023-05-02T13:01:14;101983.72;;;18.15;52.66
15487;BME280;7845;53.698;10.078;2023-05-02T13:03:41;101983.78;;;17.63;53.22
15487;BME280;7845;53.698;10.078;2023-05-02T13:06:08;102000.78;;;17.44;53.85
15487;BME280;7845;53.698;10.078;2023-05-02T13:08:35;101991.00;;;17.51;54.03
15487;BME280;7845;53.698;10.078;2023-05-02T13:11:01;101995.63;;;17.92;54.08
15487;BME280;7845;53.698;10.078;2023-05-02T13:13:27;102010.28;;;17.01;55.74
15487;BME280;7845;53.698;10.078;2023-05-02T13:15:54;102020.50;;;17.22;56.70